Thompsontown, Pennsylvania
Current Conditions -  °F | °C
As of 12:53 AM on Monday 24 Nov 2014 (Local Time) from KSEG Reporting Station
Moderate Rain Moderate Rain  
Wind Chill: 52°   Ceiling: 1500
Heat Index: 52°   Visibility: 4mi
Dew Point: 49°   Wind: 6mph
Humidity: 89%   Direction: 120°ESE
Pressure: 29.74"   Gusts: NA
Location:  40.56°N, 77.24°W
Report Text: KSEG 240553Z AUTO 12005KT 4SM RA BR OVC015 11/09 A2974 RMK AO2 PRESFR SLP071 P0015 60019 T01110094 10111 20072 58064 $
Loading
Personal Weather Stations






























Interactive Weather Map New forecast layout! Learn more

10-Day Weather Forecast

Advertisements
Track Severe Weather on mobile